Terminal Aerodrome Forecast
Issued by NWS

Home | Current Version | Previous Version | Text Only | Print | Product List | Glossary On
Versions: 1 2 3 4 5 6 7 8 9 10 11 12 13 14 15 16 17
000
FTUS44 KMAF 192300
TAFPEQ
TAF
KPEQ 192324Z 2000/2024 09011KT P6SM SCT060 OVC120
      TEMPO 2000/2003 VRB15G30KT 6SM TSRA BKN040CB
     FM200300 12009KT P6SM OVC100=

USA.gov is the U.S. government's official web portal to all federal, state and local government web resources and services.